AirNav   Add more blue sky to your engine
 
 773 users online  

7S3 Stark's Twin Oaks Airpark
Hillsboro, Oregon, USA

GOING TO HILLSBORO?


FAA INFORMATION EFFECTIVE 15 SEPTEMBER 2016

Location

FAA Identifier: 7S3
Lat/Long: 45-25-42.4210N / 122-56-31.7650W
45-25.707017N / 122-56.529417W
45.4284503 / -122.9421569
(estimated)
Elevation: 170 ft. / 52 m (estimated)
Variation: 19E (1985)
From city: 4 miles S of HILLSBORO, OR
Time zone: UTC -7 (UTC -8 during Standard Time)
Zip code: 97123

Airport Operations

Airport use: Open to the public
Activation date: 07/1974
Sectional chart: SEATTLE
Control tower: no
ARTCC: SEATTLE CENTER
FSS: MC MINNVILLE FLIGHT SERVICE STATION
NOTAMs facility: MMV (NOTAM-D service available)
Attendance: DAWN-DUSK
Pattern altitude: 1200 ft. MSL
Wind indicator: yes
Segmented circle: no
Lights: ACTIVATE LIRL RY 02/20-CTAF; AFT 0000 PPR CALL AMGR 503-628-2817.

Airport Communications

CTAF/UNICOM: 123.05
CLEARANCE DELIVERY: 119.95
WX ASOS at HIO (7 nm N): PHONE 503-640-2984
WX ASOS at UAO (13 nm SE): 118.525 (503-678-3011)
WX ASOS at MMV (16 nm SW): 135.675 (503-434-9153)
WX ASOS at VUO (17 nm NE): 135.125 (360-696-1280)
WX ASOS at PDX (17 nm NE): PHONE 503-284-6771

Nearby radio navigation aids

VOR radial/distance  VOR name  Freq  Var
UBGr358/4.8NEWBERG VOR/DME117.4021E
BTGr197/24.2BATTLE GROUND VORTAC116.6021E

 
NDB name  Hdg/Dist  Freq  Var  ID
BANKS144/12.935616EPND .--. -. -..
LAKER235/21.333216ELBH .-.. -... ....

Airport Services

Fuel available: 100LL
Parking: tiedowns
Airframe service: MAJOR
Powerplant service: MINOR
Bottled oxygen: NONE
Bulk oxygen: NONE

Runway Information

Runway 2/20

Dimensions: 2465 x 48 ft. / 751 x 15 m
Surface: asphalt, in good condition
Runway edge lights: low intensity
LIGHT FIXTURES 30' FROM RWY EDGES.
Runway edge markings: RWY 20 NTSD BSC MKGS, RWY 20 NO NUMBERS
RUNWAY 2  RUNWAY 20
Gradient: 1.5%1.5%
Traffic pattern: leftleft
Displaced threshold: 100 ft.no
Markings: NSTD, in fair conditionNSTD, in fair condition
Obstructions: 100 ft. tree, 3078 ft. from runway, 28:1 slope to clear
26:1 BASED ON DISPLACED THRESHOLD
10 ft. trees, 201 ft. from runway, 120 ft. left of centerline
20' TREES AT 175' AND 120' LEFT OF CENTERLINE NO SAFETY AREA

Airport Ownership and Management from official FAA records

Ownership: Privately-owned
Owner: ROBERT C & BETTY STARK
12405 S.W. RIVER RD
HILLSBORO, OR 97123
Phone 503-522-8952
Manager: ROBERT C. STARK
12405 S.W. RIVER RD
HILLSBORO, OR 97123
Phone 503-628-2817

Airport Operational Statistics

Aircraft based on the field: 113
Single engine airplanes: 107
Multi engine airplanes: 1
Helicopters: 4
Ultralights: 1
    
Aircraft operations: avg 61/day *
74% transient general aviation
26% local general aviation
* for 12-month period ending 31 August 2015

Additional Remarks

RUNWAY ENDS NOT VISIBLE FROM EACH OTHER

Instrument Procedures

There are no published instrument procedures at 7S3.

Some nearby airports with instrument procedures:

KHIO - Portland-Hillsboro Airport (7 nm N)
KUAO - Aurora State Airport (13 nm SE)
KMMV - Mc Minnville Municipal Airport (16 nm SW)
KVUO - Pearson Field Airport (17 nm NE)
KPDX - Portland International Airport (17 nm NE)
 
Loc | Ops | Rwys | IFR | FBO | Links
Com | Nav | Svcs | Stats | Notes

UVair FBO Network
 
Area around 7S3 (Stark's Twin Oaks Airpark)
 
Road maps at: MapQuest Bing Google
 
Aerial photo
WARNING: Photo may not be current or correct
Aerial photo of 7S3 (Stark's Twin Oaks Airpark)
Photo taken 19-Sep-2011
looking northeast.

Do you have a better or more recent aerial photo of Stark's Twin Oaks Airpark that you would like to share? If so, please send us your photo.

 
Sectional chart

 
Airport diagram
CAUTION: Diagram may not be current
Diagram of 7S3 (Stark's Twin Oaks Airpark)
 
Airport distance calculator
Flying to Stark's Twin Oaks Airpark? Find the distance to fly.

From to 7S3

Sunrise and sunset
Times for 26-Sep-2016
 Local
(UTC-7)
 Zulu
(UTC)
Morning civil twilight06:3713:37
Sunrise07:0614:06
Sunset18:5901:59
Evening civil twilight19:2902:29

Current date and time
Zulu (UTC)  26-Sep-2016 12:06:06
Local (UTC-7)  26-Sep-2016 05:06:06
 
METAR
KHIO 
7nm N 
261153Z AUTO 00000KT 10SM CLR 12/11 A3007 RMK AO2 SLP180 T01170111 10167 20117 56014
KUAO 
13nm SE 
261153Z AUTO 00000KT 10SM CLR 12/12 A3007 RMK AO2 SLP182 T01220117 10194 20122 56013
KMMV 
16nm SW 
261153Z AUTO 00000KT 10SM CLR 12/11 A3008 RMK AO2 SLP183 T01220111 10161 20122 56012
KVUO 
17nm NE 
261153Z AUTO 00000KT 10SM CLR 12/10 A3008 RMK AO2 SLP184 T01170100 10172 20117 56012
KPDX 
17nm NE 
261153Z 00000KT 10SM CLR 14/12 A3008 RMK AO2 SLP184 T01390117 10189 20139 56012
TAF
KHIO 
7nm N 
261120Z 2612/2712 VRB02KT P6SM SCT250 FM270000 33006KT P6SM SKC FM271000 30003KT P6SM SCT012
KPDX 
17nm NE 
261120Z 2612/2712 VRB03KT P6SM SCT250 FM261800 30006KT P6SM SKC FM271000 32005KT P6SM BKN015
NOTAMs
Click for the latest NOTAMs
NOTAMs are issued by the DoD/FAA and will open in a separate window not controlled by AirNav.

 

 
 

FBO, Fuel Providers, and Aircraft Ground Support

   Business Name   Contact    Services / Description  Fuel Prices Comments  
Twin Oaks Airpark 503-451-3480
503-522-8952
[web site]
[email]
Airport management, Aviation fuel, Aircraft parking (ramp or tiedown), Hangars, Hangar leasing / sales, Flight training, Aircraft rental, ...

More info about Twin Oaks Airpark
EPIC
100LL
SS $3.99 
 Updated 12-Sep-2016
 
   2 read write
SS=Self service
Update Fuel Prices
 

Where to Stay: Hotels, Motels, Resorts, B&Bs, Campgrounds

 In this space we feature lodging establishments that are convenient to the Stark's Twin Oaks Airpark. If your hotel/inn/B&B/resort is near the Stark's Twin Oaks Airpark, provides convenient transportation, or is otherwise attractive to pilots, flight crews, and airport users, consider listing it here.  
Feature A Hotel
 

AirNav users who flew into 7S3 have stayed at...

Miles Price ($)
COMFORT INN 7.2 125-143
 

Other hotels near Stark's Twin Oaks Airpark

Miles Price ($)
AMERICA'S BEST INN & SUITES PORTLAND/ALOHA 5.5 64-105

Distances are approximate, and may vary depending on the actual route traveled and the location of the travel start on the airport.
    

Hotels in other cities near Stark's Twin Oaks Airpark

13 in Hillsboro
9 in Beaverton
9 in Tigard
4 in Newberg
2 in Forest Grove
7 in Wilsonville
7 in Lake Oswego
1 in Carlton
109 in Portland
2 in Gladstone
8 in Clackamas
5 in Mcminnville
25 in Vancouver, WA
 

Would you like to see your business listed on this page?

 If your business provides an interesting product or service to pilots, flight crews, aircraft, or users of the Stark's Twin Oaks Airpark, you should consider listing it here.  To start the listing process, click on the button below
 
Add a business
 

Other Pages about Stark's Twin Oaks Airpark

www.twinoaksairpark.com
 
Update a link
 
Copyright © AirNav, LLC. All rights reserved. Privacy Policy  Contact